sensor_id;sensor_type;location;lat;lon;timestamp;temperature;humidity
13606;DHT22;6874;52.084;5.090;2023-02-14T00:02:02;5.60;99.90
13606;DHT22;6874;52.084;5.090;2023-02-14T00:04:28;5.60;99.90
13606;DHT22;6874;52.084;5.090;2023-02-14T00:06:53;5.60;99.90
13606;DHT22;6874;52.084;5.090;2023-02-14T00:09:19;5.60;99.90
13606;DHT22;6874;52.084;5.090;2023-02-14T00:11:44;5.60;99.90
13606;DHT22;6874;52.084;5.090;2023-02-14T00:14:11;5.60;99.90
13606;DHT22;6874;52.084;5.090;2023-02-14T00:16:55;5.60;99.90
13606;DHT22;6874;52.084;5.090;2023-02-14T00:19:21;5.50;99.90
13606;DHT22;6874;52.084;5.090;2023-02-14T00:21:48;5.50;99.90
13606;DHT22;6874;52.084;5.090;2023-02-14T00:24:23;5.50;99.90
13606;DHT22;6874;52.084;5.090;2023-02-14T00:26:49;5.50;99.90
13606;DHT22;6874;52.084;5.090;2023-02-14T00:29:18;5.50;99.90
13606;DHT22;6874;52.084;5.090;2023-02-14T00:31:44;5.50;99.90
13606;DHT22;6874;52.084;5.090;2023-02-14T00:34:10;5.40;99.90
13606;DHT22;6874;52.084;5.090;2023-02-14T00:36:36;5.40;99.90
13606;DHT22;6874;52.084;5.090;2023-02-14T00:39:03;5.40;99.90
13606;DHT22;6874;52.084;5.090;2023-02-14T00:41:30;5.40;99.90
13606;DHT22;6874;52.084;5.090;2023-02-14T00:43:55;5.40;99.90
13606;DHT22;6874;52.084;5.090;2023-02-14T00:46:22;5.40;99.90
13606;DHT22;6874;52.084;5.090;2023-02-14T00:48:48;5.30;99.90
13606;DHT22;6874;52.084;5.090;2023-02-14T00:51:14;5.30;99.90
13606;DHT22;6874;52.084;5.090;2023-02-14T00:53:40;5.30;99.90
13606;DHT22;6874;52.084;5.090;2023-02-14T00:56:07;5.30;99.90
13606;DHT22;6874;52.084;5.090;2023-02-14T00:58:32;5.20;99.90
13606;DHT22;6874;52.084;5.090;2023-02-14T01:00:59;5.30;99.90
13606;DHT22;6874;52.084;5.090;2023-02-14T01:03:25;5.30;99.90
13606;DHT22;6874;52.084;5.090;2023-02-14T01:05:51;5.20;99.90
13606;DHT22;6874;52.084;5.090;2023-02-14T01:08:17;5.20;99.90
13606;DHT22;6874;52.084;5.090;2023-02-14T01:10:43;5.20;99.90
13606;DHT22;6874;52.084;5.090;2023-02-14T01:13:10;5.20;99.90
13606;DHT22;6874;52.084;5.090;2023-02-14T01:15:47;5.20;99.90
13606;DHT22;6874;52.084;5.090;2023-02-14T01:18:13;5.10;99.90
13606;DHT22;6874;52.084;5.090;2023-02-14T01:20:39;5.10;99.90
13606;DHT22;6874;52.084;5.090;2023-02-14T01:23:05;5.10;99.90
13606;DHT22;6874;52.084;5.090;2023-02-14T01:25:31;5.10;99.90
13606;DHT22;6874;52.084;5.090;2023-02-14T01:27:56;5.10;99.90
13606;DHT22;6874;52.084;5.090;2023-02-14T01:30:22;5.10;99.90
13606;DHT22;6874;52.084;5.090;2023-02-14T01:32:48;5.10;99.90
13606;DHT22;6874;52.084;5.090;2023-02-14T01:35:14;5.10;99.90
13606;DHT22;6874;52.084;5.090;2023-02-14T01:37:39;5.00;99.90
13606;DHT22;6874;52.084;5.090;2023-02-14T01:40:07;5.00;99.90
13606;DHT22;6874;52.084;5.090;2023-02-14T01:42:34;5.00;99.90
13606;DHT22;6874;52.084;5.090;2023-02-14T01:45:04;5.00;99.90
13606;DHT22;6874;52.084;5.090;2023-02-14T01:47:33;5.00;99.90
13606;DHT22;6874;52.084;5.090;2023-02-14T01:50:09;4.90;99.90
13606;DHT22;6874;52.084;5.090;2023-02-14T01:52:41;4.90;99.90
13606;DHT22;6874;52.084;5.090;2023-02-14T01:55:13;4.90;99.90
13606;DHT22;6874;52.084;5.090;2023-02-14T01:57:44;4.90;99.90
13606;DHT22;6874;52.084;5.090;2023-02-14T02:00:12;4.90;99.90
13606;DHT22;6874;52.084;5.090;2023-02-14T02:02:58;4.90;99.90
13606;DHT22;6874;52.084;5.090;2023-02-14T02:05:24;4.90;99.90
13606;DHT22;6874;52.084;5.090;2023-02-14T02:07:51;4.90;99.90
13606;DHT22;6874;52.084;5.090;2023-02-14T02:10:19;4.80;99.90
13606;DHT22;6874;52.084;5.090;2023-02-14T02:12:45;4.80;99.90
13606;DHT22;6874;52.084;5.090;2023-02-14T02:15:12;4.80;99.90
13606;DHT22;6874;52.084;5.090;2023-02-14T02:18:00;4.80;99.90
13606;DHT22;6874;52.084;5.090;2023-02-14T02:21:20;4.80;99.90
13606;DHT22;6874;52.084;5.090;2023-02-14T02:26:37;4.80;99.90
13606;DHT22;6874;52.084;5.090;2023-02-14T02:46:08;4.70;99.90
13606;DHT22;6874;52.084;5.090;2023-02-14T02:49:25;4.60;99.90
13606;DHT22;6874;52.084;5.090;2023-02-14T02:58:52;4.60;99.90
13606;DHT22;6874;52.084;5.090;2023-02-14T03:01:39;4.60;99.90
13606;DHT22;6874;52.084;5.090;2023-02-14T03:04:09;4.60;99.90
13606;DHT22;6874;52.084;5.090;2023-02-14T03:06:55;4.60;99.90
13606;DHT22;6874;52.084;5.090;2023-02-14T03:15:02;4.50;99.90
13606;DHT22;6874;52.084;5.090;2023-02-14T03:23:28;4.50;99.90
13606;DHT22;6874;52.084;5.090;2023-02-14T03:26:49;4.50;99.90
13606;DHT22;6874;52.084;5.090;2023-02-14T03:29:24;4.50;99.90
13606;DHT22;6874;52.084;5.090;2023-02-14T03:32:21;4.40;99.90
13606;DHT22;6874;52.084;5.090;2023-02-14T03:35:16;4.40;99.90
13606;DHT22;6874;52.084;5.090;2023-02-14T03:37:56;4.40;99.90
13606;DHT22;6874;52.084;5.090;2023-02-14T03:40:39;4.40;99.90
13606;DHT22;6874;52.084;5.090;2023-02-14T03:43:10;4.40;99.90
13606;DHT22;6874;52.084;5.090;2023-02-14T03:45:45;4.40;99.90
13606;DHT22;6874;52.084;5.090;2023-02-14T03:48:13;4.40;99.90
13606;DHT22;6874;52.084;5.090;2023-02-14T03:50:41;4.30;99.90
13606;DHT22;6874;52.084;5.090;2023-02-14T03:53:09;4.30;99.90
13606;DHT22;6874;52.084;5.090;2023-02-14T03:55:43;4.30;99.90
13606;DHT22;6874;52.084;5.090;2023-02-14T03:58:23;4.30;99.90
13606;DHT22;6874;52.084;5.090;2023-02-14T04:00:56;4.30;99.90
13606;DHT22;6874;52.084;5.090;2023-02-14T04:03:24;4.30;99.90
13606;DHT22;6874;52.084;5.090;2023-02-14T04:05:51;4.30;99.90
13606;DHT22;6874;52.084;5.090;2023-02-14T04:08:22;4.30;99.90
13606;DHT22;6874;52.084;5.090;2023-02-14T04:10:49;4.30;99.90
13606;DHT22;6874;52.084;5.090;2023-02-14T04:13:15;4.20;99.90
13606;DHT22;6874;52.084;5.090;2023-02-14T04:15:41;4.20;99.90
13606;DHT22;6874;52.084;5.090;2023-02-14T04:18:07;4.20;99.90
13606;DHT22;6874;52.084;5.090;2023-02-14T04:20:51;4.20;99.90
13606;DHT22;6874;52.084;5.090;2023-02-14T04:23:17;4.20;99.90
13606;DHT22;6874;52.084;5.090;2023-02-14T04:25:42;4.20;99.90
13606;DHT22;6874;52.084;5.090;2023-02-14T04:28:10;4.20;99.90
13606;DHT22;6874;52.084;5.090;2023-02-14T04:30:36;4.20;99.90
13606;DHT22;6874;52.084;5.090;2023-02-14T04:33:02;4.20;99.90
13606;DHT22;6874;52.084;5.090;2023-02-14T04:35:28;4.10;99.90
13606;DHT22;6874;52.084;5.090;2023-02-14T04:37:53;4.10;99.90
13606;DHT22;6874;52.084;5.090;2023-02-14T04:40:19;4.10;99.90
13606;DHT22;6874;52.084;5.090;2023-02-14T04:42:45;4.10;99.90
13606;DHT22;6874;52.084;5.090;2023-02-14T04:45:11;4.10;99.90
13606;DHT22;6874;52.084;5.090;2023-02-14T04:47:36;4.10;99.90
13606;DHT22;6874;52.084;5.090;2023-02-14T04:50:02;4.10;99.90
13606;DHT22;6874;52.084;5.090;2023-02-14T04:52:28;4.10;99.90
13606;DHT22;6874;52.084;5.090;2023-02-14T04:54:54;4.10;99.90
13606;DHT22;6874;52.084;5.090;2023-02-14T04:57:19;4.00;99.90
13606;DHT22;6874;52.084;5.090;2023-02-14T04:59:45;4.00;99.90
13606;DHT22;6874;52.084;5.090;2023-02-14T05:02:10;4.00;99.90
13606;DHT22;6874;52.084;5.090;2023-02-14T05:04:36;4.00;99.90
13606;DHT22;6874;52.084;5.090;2023-02-14T05:07:02;4.00;99.90
13606;DHT22;6874;52.084;5.090;2023-02-14T05:09:28;4.00;99.90
13606;DHT22;6874;52.084;5.090;2023-02-14T05:11:54;4.00;99.90
13606;DHT22;6874;52.084;5.090;2023-02-14T05:14:19;4.00;99.90
13606;DHT22;6874;52.084;5.090;2023-02-14T05:16:45;3.90;99.90
13606;DHT22;6874;52.084;5.090;2023-02-14T05:19:11;3.90;99.90
13606;DHT22;6874;52.084;5.090;2023-02-14T05:21:36;3.90;99.90
13606;DHT22;6874;52.084;5.090;2023-02-14T05:24:03;3.90;99.90
13606;DHT22;6874;52.084;5.090;2023-02-14T05:26:28;3.90;99.90
13606;DHT22;6874;52.084;5.090;2023-02-14T05:28:54;3.90;99.90
13606;DHT22;6874;52.084;5.090;2023-02-14T05:31:20;3.90;99.90
13606;DHT22;6874;52.084;5.090;2023-02-14T05:33:45;3.80;99.90
13606;DHT22;6874;52.084;5.090;2023-02-14T05:36:11;3.80;99.90
13606;DHT22;6874;52.084;5.090;2023-02-14T05:38:36;3.80;99.90
13606;DHT22;6874;52.084;5.090;2023-02-14T05:41:02;3.80;99.90
13606;DHT22;6874;52.084;5.090;2023-02-14T05:43:27;3.80;99.90
13606;DHT22;6874;52.084;5.090;2023-02-14T05:45:54;3.80;99.90
13606;DHT22;6874;52.084;5.090;2023-02-14T05:48:20;3.80;99.90
13606;DHT22;6874;52.084;5.090;2023-02-14T05:50:46;3.80;99.90
13606;DHT22;6874;52.084;5.090;2023-02-14T05:53:12;3.80;99.90
13606;DHT22;6874;52.084;5.090;2023-02-14T05:55:38;3.80;99.90
13606;DHT22;6874;52.084;5.090;2023-02-14T05:58:03;3.80;99.90
13606;DHT22;6874;52.084;5.090;2023-02-14T06:00:29;3.70;99.90
13606;DHT22;6874;52.084;5.090;2023-02-14T06:02:55;3.70;99.90
13606;DHT22;6874;52.084;5.090;2023-02-14T06:05:20;3.70;99.90
13606;DHT22;6874;52.084;5.090;2023-02-14T06:07:49;3.70;99.90
13606;DHT22;6874;52.084;5.090;2023-02-14T06:10:20;3.70;99.90
13606;DHT22;6874;52.084;5.090;2023-02-14T06:12:48;3.60;99.90
13606;DHT22;6874;52.084;5.090;2023-02-14T06:15:14;3.60;99.90
13606;DHT22;6874;52.084;5.090;2023-02-14T06:17:39;3.60;99.90
13606;DHT22;6874;52.084;5.090;2023-02-14T06:20:06;3.60;99.90
13606;DHT22;6874;52.084;5.090;2023-02-14T06:22:34;3.60;99.90
13606;DHT22;6874;52.084;5.090;2023-02-14T06:24:59;3.60;99.90
13606;DHT22;6874;52.084;5.090;2023-02-14T06:27:25;3.60;99.90
13606;DHT22;6874;52.084;5.090;2023-02-14T06:29:50;3.60;99.90
13606;DHT22;6874;52.084;5.090;2023-02-14T06:32:16;3.50;99.90
13606;DHT22;6874;52.084;5.090;2023-02-14T06:34:41;3.50;99.90
13606;DHT22;6874;52.084;5.090;2023-02-14T06:37:07;3.50;99.90
13606;DHT22;6874;52.084;5.090;2023-02-14T06:39:33;3.50;99.90
13606;DHT22;6874;52.084;5.090;2023-02-14T06:41:58;3.50;99.90
13606;DHT22;6874;52.084;5.090;2023-02-14T06:44:24;3.40;99.90
13606;DHT22;6874;52.084;5.090;2023-02-14T06:46:49;3.40;99.90
13606;DHT22;6874;52.084;5.090;2023-02-14T06:49:15;3.40;99.90
13606;DHT22;6874;52.084;5.090;2023-02-14T06:51:40;3.40;99.90
13606;DHT22;6874;52.084;5.090;2023-02-14T06:54:07;3.40;99.90
13606;DHT22;6874;52.084;5.090;2023-02-14T06:56:33;3.40;99.90
13606;DHT22;6874;52.084;5.090;2023-02-14T06:58:58;3.40;99.90
13606;DHT22;6874;52.084;5.090;2023-02-14T07:01:24;3.30;99.90
13606;DHT22;6874;52.084;5.090;2023-02-14T07:03:49;3.30;99.90
13606;DHT22;6874;52.084;5.090;2023-02-14T07:06:15;3.30;99.90
13606;DHT22;6874;52.084;5.090;2023-02-14T07:08:41;3.30;99.90
13606;DHT22;6874;52.084;5.090;2023-02-14T07:11:06;3.20;99.90
13606;DHT22;6874;52.084;5.090;2023-02-14T07:13:32;3.20;99.90
13606;DHT22;6874;52.084;5.090;2023-02-14T07:15:58;3.20;99.90
13606;DHT22;6874;52.084;5.090;2023-02-14T07:18:23;3.20;99.90
13606;DHT22;6874;52.084;5.090;2023-02-14T07:20:52;3.20;99.90
13606;DHT22;6874;52.084;5.090;2023-02-14T07:23:17;3.20;99.90
13606;DHT22;6874;52.084;5.090;2023-02-14T07:25:43;3.20;99.90
13606;DHT22;6874;52.084;5.090;2023-02-14T07:28:08;3.20;99.90
13606;DHT22;6874;52.084;5.090;2023-02-14T07:30:35;3.20;99.90
13606;DHT22;6874;52.084;5.090;2023-02-14T07:33:01;3.10;99.90
13606;DHT22;6874;52.084;5.090;2023-02-14T07:35:26;3.10;99.90
13606;DHT22;6874;52.084;5.090;2023-02-14T07:37:52;3.10;99.90
13606;DHT22;6874;52.084;5.090;2023-02-14T07:40:18;3.10;99.90
13606;DHT22;6874;52.084;5.090;2023-02-14T07:42:51;3.10;99.90
13606;DHT22;6874;52.084;5.090;2023-02-14T07:45:16;3.10;99.90
13606;DHT22;6874;52.084;5.090;2023-02-14T07:47:42;3.10;99.90
13606;DHT22;6874;52.084;5.090;2023-02-14T07:50:08;3.10;99.90
13606;DHT22;6874;52.084;5.090;2023-02-14T07:52:33;3.10;99.90
13606;DHT22;6874;52.084;5.090;2023-02-14T07:54:59;3.00;99.90
13606;DHT22;6874;52.084;5.090;2023-02-14T07:57:24;3.00;99.90
13606;DHT22;6874;52.084;5.090;2023-02-14T07:59:50;3.00;99.90
13606;DHT22;6874;52.084;5.090;2023-02-14T08:02:15;3.00;99.90
13606;DHT22;6874;52.084;5.090;2023-02-14T08:04:41;3.00;99.90
13606;DHT22;6874;52.084;5.090;2023-02-14T08:07:07;3.00;99.90
13606;DHT22;6874;52.084;5.090;2023-02-14T08:09:32;3.00;99.90
13606;DHT22;6874;52.084;5.090;2023-02-14T08:11:58;3.00;99.90
13606;DHT22;6874;52.084;5.090;2023-02-14T08:14:42;3.00;99.90
13606;DHT22;6874;52.084;5.090;2023-02-14T08:17:09;3.00;99.90
13606;DHT22;6874;52.084;5.090;2023-02-14T08:19:35;3.00;99.90
13606;DHT22;6874;52.084;5.090;2023-02-14T08:22:02;3.00;99.90
13606;DHT22;6874;52.084;5.090;2023-02-14T08:24:28;3.10;99.90
13606;DHT22;6874;52.084;5.090;2023-02-14T08:26:53;3.00;99.90
13606;DHT22;6874;52.084;5.090;2023-02-14T08:29:19;3.00;99.90
13606;DHT22;6874;52.084;5.090;2023-02-14T08:31:45;3.00;99.90
13606;DHT22;6874;52.084;5.090;2023-02-14T08:34:12;3.00;99.90
13606;DHT22;6874;52.084;5.090;2023-02-14T08:36:38;3.00;99.90
13606;DHT22;6874;52.084;5.090;2023-02-14T08:39:04;3.00;99.90
13606;DHT22;6874;52.084;5.090;2023-02-14T08:41:30;3.00;99.90
13606;DHT22;6874;52.084;5.090;2023-02-14T08:43:55;3.00;99.90
13606;DHT22;6874;52.084;5.090;2023-02-14T08:46:21;3.00;99.90
13606;DHT22;6874;52.084;5.090;2023-02-14T08:48:46;3.00;99.90
13606;DHT22;6874;52.084;5.090;2023-02-14T08:51:14;3.00;99.90
13606;DHT22;6874;52.084;5.090;2023-02-14T08:53:41;3.10;99.90
13606;DHT22;6874;52.084;5.090;2023-02-14T08:56:09;3.10;99.90
13606;DHT22;6874;52.084;5.090;2023-02-14T08:58:35;3.10;99.90
13606;DHT22;6874;52.084;5.090;2023-02-14T09:01:12;3.10;99.90
13606;DHT22;6874;52.084;5.090;2023-02-14T09:03:38;3.10;99.90
13606;DHT22;6874;52.084;5.090;2023-02-14T09:06:09;3.10;99.90
13606;DHT22;6874;52.084;5.090;2023-02-14T09:08:37;3.10;99.90
13606;DHT22;6874;52.084;5.090;2023-02-14T09:11:21;3.10;99.90
13606;DHT22;6874;52.084;5.090;2023-02-14T09:13:48;3.10;99.90
13606;DHT22;6874;52.084;5.090;2023-02-14T09:16:15;3.20;99.90
13606;DHT22;6874;52.084;5.090;2023-02-14T09:18:45;3.20;99.90
13606;DHT22;6874;52.084;5.090;2023-02-14T09:21:17;3.20;99.90
13606;DHT22;6874;52.084;5.090;2023-02-14T09:23:43;3.20;99.90
13606;DHT22;6874;52.084;5.090;2023-02-14T09:26:11;3.20;99.90
13606;DHT22;6874;52.084;5.090;2023-02-14T09:28:37;3.20;99.90
13606;DHT22;6874;52.084;5.090;2023-02-14T09:31:18;3.30;99.90
13606;DHT22;6874;52.084;5.090;2023-02-14T09:33:44;3.30;99.90
13606;DHT22;6874;52.084;5.090;2023-02-14T09:36:28;3.30;99.90
13606;DHT22;6874;52.084;5.090;2023-02-14T09:38:54;3.30;99.90
13606;DHT22;6874;52.084;5.090;2023-02-14T09:44:11;3.40;99.90
13606;DHT22;6874;52.084;5.090;2023-02-14T09:46:49;3.40;99.90
13606;DHT22;6874;52.084;5.090;2023-02-14T09:49:17;3.40;99.90
13606;DHT22;6874;52.084;5.090;2023-02-14T09:51:47;3.40;99.90
13606;DHT22;6874;52.084;5.090;2023-02-14T09:54:19;3.50;99.90
13606;DHT22;6874;52.084;5.090;2023-02-14T09:56:54;3.50;99.90
13606;DHT22;6874;52.084;5.090;2023-02-14T10:05:16;3.60;99.90
13606;DHT22;6874;52.084;5.090;2023-02-14T10:12:54;3.60;99.90
13606;DHT22;6874;52.084;5.090;2023-02-14T10:15:41;3.70;99.90
13606;DHT22;6874;52.084;5.090;2023-02-14T10:18:24;3.70;99.90
13606;DHT22;6874;52.084;5.090;2023-02-14T10:20:57;3.70;99.90
13606;DHT22;6874;52.084;5.090;2023-02-14T10:23:35;3.70;99.90
13606;DHT22;6874;52.084;5.090;2023-02-14T10:26:13;3.80;99.90
13606;DHT22;6874;52.084;5.090;2023-02-14T10:28:46;3.80;99.90
13606;DHT22;6874;52.084;5.090;2023-02-14T10:33:48;3.90;99.90
13606;DHT22;6874;52.084;5.090;2023-02-14T10:39:28;3.90;99.90
13606;DHT22;6874;52.084;5.090;2023-02-14T10:45:04;4.00;99.90
13606;DHT22;6874;52.084;5.090;2023-02-14T10:50:38;4.00;99.90
13606;DHT22;6874;52.084;5.090;2023-02-14T10:58:27;4.10;99.90
13606;DHT22;6874;52.084;5.090;2023-02-14T11:03:27;4.20;99.90
13606;DHT22;6874;52.084;5.090;2023-02-14T11:05:53;4.20;99.90
13606;DHT22;6874;52.084;5.090;2023-02-14T11:08:34;4.30;99.90
13606;DHT22;6874;52.084;5.090;2023-02-14T11:11:26;4.30;99.90
13606;DHT22;6874;52.084;5.090;2023-02-14T11:13:53;4.40;99.90
13606;DHT22;6874;52.084;5.090;2023-02-14T11:16:33;4.40;99.90
13606;DHT22;6874;52.084;5.090;2023-02-14T11:21:42;4.50;99.90
13606;DHT22;6874;52.084;5.090;2023-02-14T11:27:00;4.60;99.90
13606;DHT22;6874;52.084;5.090;2023-02-14T11:29:40;4.60;99.90
13606;DHT22;6874;52.084;5.090;2023-02-14T11:32:27;4.70;99.90
13606;DHT22;6874;52.084;5.090;2023-02-14T11:35:03;4.70;99.90
13606;DHT22;6874;52.084;5.090;2023-02-14T11:37:32;4.80;99.90
13606;DHT22;6874;52.084;5.090;2023-02-14T11:40:03;4.80;99.90
13606;DHT22;6874;52.084;5.090;2023-02-14T11:45:01;4.90;99.90
13606;DHT22;6874;52.084;5.090;2023-02-14T11:47:34;5.00;99.90
13606;DHT22;6874;52.084;5.090;2023-02-14T11:50:20;5.00;99.90
13606;DHT22;6874;52.084;5.090;2023-02-14T11:52:51;5.00;99.90
13606;DHT22;6874;52.084;5.090;2023-02-14T11:55:29;5.10;99.90
13606;DHT22;6874;52.084;5.090;2023-02-14T11:57:57;5.10;99.90
13606;DHT22;6874;52.084;5.090;2023-02-14T12:00:24;5.20;99.90
13606;DHT22;6874;52.084;5.090;2023-02-14T12:02:52;5.20;99.90
13606;DHT22;6874;52.084;5.090;2023-02-14T12:05:27;5.40;99.90
13606;DHT22;6874;52.084;5.090;2023-02-14T12:07:57;5.30;99.90
13606;DHT22;6874;52.084;5.090;2023-02-14T12:10:30;5.40;99.90
13606;DHT22;6874;52.084;5.090;2023-02-14T12:15:35;5.50;99.90
13606;DHT22;6874;52.084;5.090;2023-02-14T12:20:55;5.60;99.90
13606;DHT22;6874;52.084;5.090;2023-02-14T12:29:08;5.90;99.90
13606;DHT22;6874;52.084;5.090;2023-02-14T12:31:35;6.00;99.90
13606;DHT22;6874;52.084;5.090;2023-02-14T12:34:02;6.10;99.90
13606;DHT22;6874;52.084;5.090;2023-02-14T12:36:41;6.10;99.90
13606;DHT22;6874;52.084;5.090;2023-02-14T12:42:04;6.30;99.90
13606;DHT22;6874;52.084;5.090;2023-02-14T12:48:03;6.60;99.90
13606;DHT22;6874;52.084;5.090;2023-02-14T12:56:41;7.00;99.90
13606;DHT22;6874;52.084;5.090;2023-02-14T13:05:05;7.40;99.90
13606;DHT22;6874;52.084;5.090;2023-02-14T13:08:02;7.50;99.90
13606;DHT22;6874;52.084;5.090;2023-02-14T13:13:21;7.80;99.90
13606;DHT22;6874;52.084;5.090;2023-02-14T13:16:17;7.90;99.90
13606;DHT22;6874;52.084;5.090;2023-02-14T13:18:48;8.00;99.90
13606;DHT22;6874;52.084;5.090;2023-02-14T13:21:19;8.20;99.90
13606;DHT22;6874;52.084;5.090;2023-02-14T13:23:46;8.30;99.90
13606;DHT22;6874;52.084;5.090;2023-02-14T13:26:27;8.40;99.90
13606;DHT22;6874;52.084;5.090;2023-02-14T13:29:02;8.50;99.90
13606;DHT22;6874;52.084;5.090;2023-02-14T13:31:28;8.60;99.90
13606;DHT22;6874;52.084;5.090;2023-02-14T13:34:05;8.60;99.90
13606;DHT22;6874;52.084;5.090;2023-02-14T13:36:32;8.70;99.90
13606;DHT22;6874;52.084;5.090;2023-02-14T13:38:59;8.90;99.90
13606;DHT22;6874;52.084;5.090;2023-02-14T13:41:26;8.90;99.90
13606;DHT22;6874;52.084;5.090;2023-02-14T13:43:57;9.00;99.90
13606;DHT22;6874;52.084;5.090;2023-02-14T13:49:03;9.20;99.90
13606;DHT22;6874;52.084;5.090;2023-02-14T13:51:46;9.30;99.90
13606;DHT22;6874;52.084;5.090;2023-02-14T13:54:31;9.30;99.90
13606;DHT22;6874;52.084;5.090;2023-02-14T13:57:33;9.40;99.90
13606;DHT22;6874;52.084;5.090;2023-02-14T14:00:22;9.50;99.90
13606;DHT22;6874;52.084;5.090;2023-02-14T14:02:54;9.60;99.90
13606;DHT22;6874;52.084;5.090;2023-02-14T14:10:53;9.80;99.90
13606;DHT22;6874;52.084;5.090;2023-02-14T14:22:08;9.90;99.90
13606;DHT22;6874;52.084;5.090;2023-02-14T14:24:38;9.90;99.90
13606;DHT22;6874;52.084;5.090;2023-02-14T14:27:24;10.00;99.90
13606;DHT22;6874;52.084;5.090;2023-02-14T14:30:24;10.00;99.90
13606;DHT22;6874;52.084;5.090;2023-02-14T14:32:54;10.00;99.90
13606;DHT22;6874;52.084;5.090;2023-02-14T14:35:25;10.00;99.90
13606;DHT22;6874;52.084;5.090;2023-02-14T14:38:05;10.10;99.90
13606;DHT22;6874;52.084;5.090;2023-02-14T14:40:36;10.10;99.90
13606;DHT22;6874;52.084;5.090;2023-02-14T14:43:21;10.10;99.90
13606;DHT22;6874;52.084;5.090;2023-02-14T14:45:49;10.10;99.90
13606;DHT22;6874;52.084;5.090;2023-02-14T14:48:44;10.20;99.90
13606;DHT22;6874;52.084;5.090;2023-02-14T14:51:27;10.20;99.90
13606;DHT22;6874;52.084;5.090;2023-02-14T14:53:58;10.20;99.90
13606;DHT22;6874;52.084;5.090;2023-02-14T14:56:27;10.20;99.90
13606;DHT22;6874;52.084;5.090;2023-02-14T14:58:56;10.20;99.90
13606;DHT22;6874;52.084;5.090;2023-02-14T15:01:38;10.30;99.90
13606;DHT22;6874;52.084;5.090;2023-02-14T15:04:30;10.40;99.90
13606;DHT22;6874;52.084;5.090;2023-02-14T15:06:57;10.30;99.90
13606;DHT22;6874;52.084;5.090;2023-02-14T15:09:40;10.30;99.90
13606;DHT22;6874;52.084;5.090;2023-02-14T15:12:08;10.30;99.90
13606;DHT22;6874;52.084;5.090;2023-02-14T15:14:54;10.30;99.90
13606;DHT22;6874;52.084;5.090;2023-02-14T15:17:27;10.30;99.90
13606;DHT22;6874;52.084;5.090;2023-02-14T15:20:02;10.30;99.90
13606;DHT22;6874;52.084;5.090;2023-02-14T15:22:50;10.30;99.90
13606;DHT22;6874;52.084;5.090;2023-02-14T15:25:26;10.30;99.90
13606;DHT22;6874;52.084;5.090;2023-02-14T15:27:53;10.30;99.90
13606;DHT22;6874;52.084;5.090;2023-02-14T15:32:46;10.20;99.90
13606;DHT22;6874;52.084;5.090;2023-02-14T15:35:14;10.20;99.90
13606;DHT22;6874;52.084;5.090;2023-02-14T15:37:45;10.20;99.90
13606;DHT22;6874;52.084;5.090;2023-02-14T15:40:17;10.20;99.90
13606;DHT22;6874;52.084;5.090;2023-02-14T15:42:44;10.20;99.90
13606;DHT22;6874;52.084;5.090;2023-02-14T15:45:28;10.20;99.90
13606;DHT22;6874;52.084;5.090;2023-02-14T15:48:02;10.10;99.90
13606;DHT22;6874;52.084;5.090;2023-02-14T15:50:44;10.10;99.90
13606;DHT22;6874;52.084;5.090;2023-02-14T15:56:08;10.10;99.90
13606;DHT22;6874;52.084;5.090;2023-02-14T15:58:37;10.10;99.90
13606;DHT22;6874;52.084;5.090;2023-02-14T16:01:06;10.00;99.90
13606;DHT22;6874;52.084;5.090;2023-02-14T16:03:34;10.00;99.90
13606;DHT22;6874;52.084;5.090;2023-02-14T16:06:03;10.00;99.90
13606;DHT22;6874;52.084;5.090;2023-02-14T16:08:39;10.00;99.90
13606;DHT22;6874;52.084;5.090;2023-02-14T16:17:04;9.90;99.90
13606;DHT22;6874;52.084;5.090;2023-02-14T16:21:56;9.90;99.90
13606;DHT22;6874;52.084;5.090;2023-02-14T16:24:23;9.90;99.90
13606;DHT22;6874;52.084;5.090;2023-02-14T16:26:51;9.80;99.90
13606;DHT22;6874;52.084;5.090;2023-02-14T16:29:21;9.80;99.90
13606;DHT22;6874;52.084;5.090;2023-02-14T16:32:11;9.80;99.90
13606;DHT22;6874;52.084;5.090;2023-02-14T16:34:38;9.70;99.90
13606;DHT22;6874;52.084;5.090;2023-02-14T16:37:23;9.70;99.90
13606;DHT22;6874;52.084;5.090;2023-02-14T16:40:20;9.70;99.90
13606;DHT22;6874;52.084;5.090;2023-02-14T16:42:50;9.60;99.90
13606;DHT22;6874;52.084;5.090;2023-02-14T16:45:33;9.60;99.90
13606;DHT22;6874;52.084;5.090;2023-02-14T16:48:08;9.50;99.90
13606;DHT22;6874;52.084;5.090;2023-02-14T16:50:38;9.50;99.90
13606;DHT22;6874;52.084;5.090;2023-02-14T16:53:16;9.50;99.90
13606;DHT22;6874;52.084;5.090;2023-02-14T16:55:44;9.50;99.90
13606;DHT22;6874;52.084;5.090;2023-02-14T16:58:14;9.40;99.90
13606;DHT22;6874;52.084;5.090;2023-02-14T17:00:51;9.30;99.90
13606;DHT22;6874;52.084;5.090;2023-02-14T17:03:17;9.30;99.90
13606;DHT22;6874;52.084;5.090;2023-02-14T17:05:43;9.30;99.90
13606;DHT22;6874;52.084;5.090;2023-02-14T17:08:11;9.20;99.90
13606;DHT22;6874;52.084;5.090;2023-02-14T17:10:39;9.20;99.90
13606;DHT22;6874;52.084;5.090;2023-02-14T17:13:06;9.20;99.90
13606;DHT22;6874;52.084;5.090;2023-02-14T17:15:32;9.00;99.90
13606;DHT22;6874;52.084;5.090;2023-02-14T17:18:02;9.10;99.90
13606;DHT22;6874;52.084;5.090;2023-02-14T17:20:29;9.00;99.90
13606;DHT22;6874;52.084;5.090;2023-02-14T17:22:55;9.00;99.90
13606;DHT22;6874;52.084;5.090;2023-02-14T17:25:21;9.00;99.90
13606;DHT22;6874;52.084;5.090;2023-02-14T17:27:46;8.80;99.90
13606;DHT22;6874;52.084;5.090;2023-02-14T17:30:13;8.70;99.90
13606;DHT22;6874;52.084;5.090;2023-02-14T17:32:39;8.70;99.90
13606;DHT22;6874;52.084;5.090;2023-02-14T17:35:05;8.70;99.90
13606;DHT22;6874;52.084;5.090;2023-02-14T17:37:34;8.60;99.90
13606;DHT22;6874;52.084;5.090;2023-02-14T17:39:59;8.50;99.90
13606;DHT22;6874;52.084;5.090;2023-02-14T17:47:29;8.50;99.90
13606;DHT22;6874;52.084;5.090;2023-02-14T17:49:55;8.50;99.90
13606;DHT22;6874;52.084;5.090;2023-02-14T17:52:21;8.40;99.90
13606;DHT22;6874;52.084;5.090;2023-02-14T17:54:48;8.40;99.90
13606;DHT22;6874;52.084;5.090;2023-02-14T17:57:13;8.40;99.90
13606;DHT22;6874;52.084;5.090;2023-02-14T17:59:39;8.30;99.90
13606;DHT22;6874;52.084;5.090;2023-02-14T18:02:05;8.20;99.90
13606;DHT22;6874;52.084;5.090;2023-02-14T18:04:30;8.20;99.90
13606;DHT22;6874;52.084;5.090;2023-02-14T18:06:59;8.20;99.90
13606;DHT22;6874;52.084;5.090;2023-02-14T18:09:24;8.20;99.90
13606;DHT22;6874;52.084;5.090;2023-02-14T18:11:50;8.10;99.90
13606;DHT22;6874;52.084;5.090;2023-02-14T18:14:15;8.10;99.90
13606;DHT22;6874;52.084;5.090;2023-02-14T18:16:41;8.00;99.90
13606;DHT22;6874;52.084;5.090;2023-02-14T18:19:07;8.00;99.90
13606;DHT22;6874;52.084;5.090;2023-02-14T18:21:35;8.00;99.90
13606;DHT22;6874;52.084;5.090;2023-02-14T18:24:05;7.90;99.90
13606;DHT22;6874;52.084;5.090;2023-02-14T18:26:31;7.90;99.90
13606;DHT22;6874;52.084;5.090;2023-02-14T18:28:57;7.80;99.90
13606;DHT22;6874;52.084;5.090;2023-02-14T18:31:23;7.80;99.90
13606;DHT22;6874;52.084;5.090;2023-02-14T18:33:50;7.80;99.90
13606;DHT22;6874;52.084;5.090;2023-02-14T18:36:21;7.70;99.90
13606;DHT22;6874;52.084;5.090;2023-02-14T18:38:48;7.70;99.90
13606;DHT22;6874;52.084;5.090;2023-02-14T18:41:16;7.70;99.90
13606;DHT22;6874;52.084;5.090;2023-02-14T18:43:42;7.60;99.90
13606;DHT22;6874;52.084;5.090;2023-02-14T18:46:11;7.60;99.90
13606;DHT22;6874;52.084;5.090;2023-02-14T18:48:37;7.60;99.90